createdAt,value
2019-06-07T00:07:04.348Z,23
2019-06-07T00:37:07.047Z,23
2019-06-07T01:07:06.556Z,22
2019-06-07T01:37:07.877Z,22
2019-06-07T02:07:08.303Z,22
2019-06-07T02:37:09.571Z,22
2019-06-07T03:07:10.366Z,21
2019-06-07T03:37:12.908Z,21
2019-06-07T04:07:11.560Z,21
2019-06-07T04:37:12.845Z,21
2019-06-07T05:07:14.007Z,21
2019-06-07T05:37:18.479Z,21
2019-06-07T06:07:18.964Z,21
2019-06-07T06:37:19.747Z,21
2019-06-07T07:07:20.621Z,9
2019-06-07T07:37:21.611Z,-30
2019-06-07T08:07:22.925Z,-58
2019-06-07T08:37:23.333Z,-80
2019-06-07T09:07:24.594Z,-96
2019-06-07T10:07:31.875Z,-118
2019-06-07T10:37:29.109Z,-126
2019-06-07T11:07:27.443Z,-132
2019-06-07T11:37:28.345Z,-136
2019-06-07T12:07:31.196Z,-140
2019-06-07T12:37:42.927Z,-143
2019-06-07T13:07:34.213Z,-121
2019-06-07T13:37:33.758Z,-88
2019-06-07T14:07:34.669Z,-63
2019-06-07T14:37:35.533Z,-43
2019-06-07T15:07:37.103Z,-29
2019-06-07T15:37:39.123Z,-18
2019-06-07T16:07:38.406Z,-9
2019-06-07T16:37:40.646Z,-3
2019-06-07T17:07:40.208Z,2
2019-06-07T17:37:42.130Z,6
2019-06-07T18:07:41.449Z,8
2019-06-07T18:37:44.006Z,11
2019-06-07T19:07:50.323Z,12
2019-06-07T19:37:46.427Z,13
2019-06-07T20:07:47.292Z,14
2019-06-07T20:37:48.248Z,15
2019-06-07T21:06:09.951Z,18
2019-06-07T21:36:14.337Z,18
2019-06-07T22:06:13.743Z,18
2019-06-07T22:36:13.607Z,18
2019-06-07T23:06:14.717Z,18
2019-06-07T23:36:15.100Z,18
